createdAt,value
2019-04-05T00:01:59.786Z,7.60
2019-04-05T00:04:28.717Z,7.60
2019-04-05T00:06:57.709Z,7.60
2019-04-05T00:09:28.544Z,7.60
2019-04-05T00:11:59.112Z,7.60
2019-04-05T00:14:27.872Z,7.60
2019-04-05T00:16:56.982Z,7.60
2019-04-05T00:19:29.111Z,7.60
2019-04-05T00:21:58.117Z,7.60
2019-04-05T00:24:27.068Z,7.60
2019-04-05T00:26:55.948Z,7.60
2019-04-05T00:29:24.748Z,7.60
2019-04-05T00:31:53.692Z,7.60
2019-04-05T00:34:22.788Z,7.60
2019-04-05T00:36:51.788Z,7.50
2019-04-05T00:39:20.697Z,7.60
2019-04-05T00:41:49.788Z,7.50
2019-04-05T00:44:18.572Z,7.50
2019-04-05T00:46:47.493Z,7.50
2019-04-05T00:49:16.417Z,7.40
2019-04-05T00:51:45.296Z,7.40
2019-04-05T00:54:14.240Z,7.40
2019-04-05T00:56:43.181Z,7.50
2019-04-05T00:59:12.208Z,7.40
2019-04-05T01:01:41.292Z,7.30
2019-04-05T01:04:10.086Z,7.30
2019-04-05T01:06:39.203Z,7.30
2019-04-05T01:09:08.735Z,7.30
2019-04-05T01:11:38.036Z,7.30
2019-04-05T01:14:07.073Z,7.30
2019-04-05T01:16:36.356Z,7.30
2019-04-05T01:19:05.377Z,7.30
2019-04-05T01:21:39.808Z,7.20
2019-04-05T01:24:10.700Z,7.20
2019-04-05T01:26:42.152Z,7.20
2019-04-05T01:29:11.784Z,7.20
2019-04-05T01:31:40.849Z,7.30
2019-04-05T01:34:11.571Z,7.20
2019-04-05T01:36:40.630Z,7.20
2019-04-05T01:39:09.808Z,7.10
2019-04-05T01:41:39.718Z,7.10
2019-04-05T01:44:08.788Z,7.10
2019-04-05T01:46:38.630Z,7.00
2019-04-05T01:49:07.606Z,7.00
2019-04-05T01:51:36.776Z,7.00
2019-04-05T01:54:05.785Z,7.00
2019-04-05T01:56:34.756Z,7.00
2019-04-05T01:59:03.748Z,7.00
2019-04-05T02:01:33.061Z,7.00
2019-04-05T02:04:02.044Z,7.00
2019-04-05T02:06:31.330Z,7.00
2019-04-05T02:09:00.200Z,6.90
2019-04-05T02:11:29.456Z,6.90
2019-04-05T02:13:58.476Z,6.80
2019-04-05T02:16:27.452Z,6.80
2019-04-05T02:18:56.452Z,6.80
2019-04-05T02:21:25.424Z,6.70
2019-04-05T02:23:54.420Z,6.80
2019-04-05T02:26:23.408Z,6.80
2019-04-05T02:28:52.380Z,6.70
2019-04-05T02:31:21.416Z,6.70
2019-04-05T02:33:50.398Z,6.70
2019-04-05T02:36:19.417Z,6.70
2019-04-05T02:38:48.347Z,6.70
2019-04-05T02:41:19.669Z,6.70
2019-04-05T02:43:50.696Z,6.70
2019-04-05T02:46:23.958Z,6.60
2019-04-05T02:48:51.428Z,6.60
2019-04-05T02:51:23.024Z,6.60
2019-04-05T02:53:52.938Z,6.70
2019-04-05T02:56:23.395Z,6.70
2019-04-05T02:58:53.377Z,6.70
2019-04-05T03:01:22.920Z,6.70
2019-04-05T03:03:52.544Z,6.70
2019-04-05T03:06:22.226Z,6.80
2019-04-05T03:08:51.913Z,6.80
2019-04-05T03:11:22.990Z,6.90
2019-04-05T03:13:54.123Z,6.90
2019-04-05T03:16:40.137Z,7.00
2019-04-05T03:19:28.878Z,7.00
2019-04-05T03:22:03.239Z,7.00
2019-04-05T03:24:35.281Z,7.00
2019-04-05T03:27:13.552Z,7.00
2019-04-05T03:29:43.601Z,7.00
2019-04-05T03:32:12.602Z,7.00
2019-04-05T03:34:44.175Z,7.10
2019-04-05T03:37:14.018Z,7.20
2019-04-05T03:39:43.597Z,7.20
2019-04-05T03:42:12.924Z,7.20
2019-04-05T03:44:43.393Z,7.10
2019-04-05T03:47:12.707Z,7.10
2019-04-05T03:49:41.791Z,7.20
2019-04-05T03:52:10.949Z,7.10
2019-04-05T03:54:39.913Z,7.10
2019-04-05T03:57:09.270Z,7.20
2019-04-05T03:59:38.288Z,7.20
2019-04-05T04:02:07.428Z,7.10
2019-04-05T04:04:36.653Z,7.10
2019-04-05T04:07:05.647Z,7.10
2019-04-05T04:09:35.127Z,7.10
2019-04-05T04:12:04.856Z,7.10
2019-04-05T04:14:33.949Z,7.20
2019-04-05T04:17:12.293Z,7.10
2019-04-05T04:19:34.193Z,7.20
2019-04-05T04:22:28.412Z,7.20
2019-04-05T04:24:59.247Z,7.20
2019-04-05T04:27:29.732Z,7.10
2019-04-05T04:30:00.412Z,7.20
2019-04-05T04:32:30.460Z,7.20
2019-04-05T04:34:59.824Z,7.10
2019-04-05T04:37:29.502Z,7.10
2019-04-05T04:39:58.655Z,7.10
2019-04-05T04:42:29.004Z,7.10
2019-04-05T04:45:11.282Z,7.10
2019-04-05T04:47:29.497Z,7.00
2019-04-05T04:49:59.960Z,7.00
2019-04-05T04:52:31.480Z,7.00
2019-04-05T04:55:00.612Z,6.90
2019-04-05T04:57:30.020Z,6.90
2019-04-05T04:59:59.280Z,6.90
2019-04-05T05:02:28.866Z,7.00
2019-04-05T05:04:58.444Z,7.00
2019-04-05T05:07:28.156Z,7.00
2019-04-05T05:09:57.356Z,7.00
2019-04-05T05:12:26.660Z,7.00
2019-04-05T05:14:56.131Z,7.00
2019-04-05T05:17:37.469Z,7.00
2019-04-05T05:19:56.314Z,7.00
2019-04-05T05:22:25.702Z,7.00
2019-04-05T05:24:55.400Z,7.00
2019-04-05T05:27:24.552Z,6.90
2019-04-05T05:29:53.590Z,7.00
2019-04-05T05:32:22.888Z,6.90
2019-04-05T05:35:01.408Z,6.90
2019-04-05T05:37:22.732Z,6.90
2019-04-05T05:39:52.041Z,6.90
2019-04-05T05:42:21.434Z,6.90
2019-04-05T05:44:50.408Z,6.90
2019-04-05T05:47:19.352Z,6.90
2019-04-05T05:49:48.334Z,6.90
2019-04-05T05:52:17.628Z,6.90
2019-04-05T05:54:46.544Z,6.90
2019-04-05T05:57:15.488Z,6.80
2019-04-05T05:59:44.376Z,6.70
2019-04-05T06:02:13.352Z,6.70
2019-04-05T06:04:42.360Z,6.70
2019-04-05T06:07:11.240Z,6.70
2019-04-05T06:09:41.660Z,6.80
2019-04-05T06:12:10.657Z,6.80
2019-04-05T06:14:39.663Z,6.80
2019-04-05T06:17:08.561Z,6.80
2019-04-05T06:19:37.684Z,6.90
2019-04-05T06:22:06.769Z,6.90
2019-04-05T06:24:35.832Z,6.90
2019-04-05T06:27:04.988Z,6.90
2019-04-05T06:29:33.911Z,6.90
2019-04-05T06:32:02.809Z,6.90
2019-04-05T06:34:31.633Z,7.00
2019-04-05T06:37:00.439Z,7.00
2019-04-05T06:39:29.328Z,7.10
2019-04-05T06:41:58.247Z,7.20
2019-04-05T06:44:28.073Z,7.20
2019-04-05T06:46:57.240Z,7.30
2019-04-05T06:49:26.255Z,7.30
2019-04-05T06:51:55.149Z,7.30
2019-04-05T06:54:24.023Z,7.30
2019-04-05T06:56:52.856Z,7.40
2019-04-05T06:59:21.628Z,7.50
2019-04-05T07:01:50.653Z,7.50
2019-04-05T07:04:19.653Z,7.50
2019-04-05T07:06:48.516Z,7.50
2019-04-05T07:09:17.429Z,7.60
2019-04-05T07:11:46.448Z,7.50
2019-04-05T07:14:15.404Z,7.60
2019-04-05T07:16:44.332Z,7.60
2019-04-05T07:19:13.914Z,7.60
2019-04-05T07:21:42.742Z,7.70
2019-04-05T07:24:11.559Z,7.70
2019-04-05T07:26:40.717Z,7.70
2019-04-05T07:29:09.701Z,7.70
2019-04-05T07:31:39.235Z,7.80
2019-04-05T07:34:08.125Z,7.90
2019-04-05T07:36:37.033Z,7.90
2019-04-05T07:39:07.237Z,8.00
2019-04-05T07:41:36.070Z,8.00
2019-04-05T07:44:05.081Z,8.00
2019-04-05T07:46:33.896Z,8.10
2019-04-05T07:49:02.701Z,8.20
2019-04-05T07:51:31.608Z,8.30
2019-04-05T07:54:00.444Z,8.30
2019-04-05T07:56:29.625Z,8.40
2019-04-05T07:58:58.428Z,8.40
2019-04-05T08:01:27.404Z,8.50
2019-04-05T08:03:58.042Z,8.50
2019-04-05T08:06:27.828Z,8.60
2019-04-05T08:09:05.563Z,8.60
2019-04-05T08:11:35.020Z,8.70
2019-04-05T08:14:04.282Z,8.90
2019-04-05T08:16:33.442Z,8.90
2019-04-05T08:19:02.371Z,9.10
2019-04-05T08:21:31.256Z,9.10
2019-04-05T08:24:00.280Z,9.30
2019-04-05T08:26:29.079Z,9.30
2019-04-05T08:28:57.988Z,9.40
2019-04-05T08:31:27.032Z,9.40
2019-04-05T08:33:58.369Z,9.50
2019-04-05T08:36:27.185Z,9.50
2019-04-05T08:38:56.212Z,9.50
2019-04-05T08:41:26.221Z,9.60
2019-04-05T08:43:55.168Z,9.60
2019-04-05T08:46:24.076Z,9.70
2019-04-05T08:48:52.949Z,9.80
2019-04-05T08:51:21.938Z,9.80
2019-04-05T08:53:50.733Z,9.90
2019-04-05T08:56:19.624Z,9.90
2019-04-05T08:58:48.452Z,9.90
2019-04-05T09:01:17.364Z,10.00
2019-04-05T09:03:46.256Z,10.00
2019-04-05T09:06:15.164Z,10.20
2019-04-05T09:08:43.993Z,10.20
2019-04-05T09:11:12.977Z,10.20
2019-04-05T09:13:41.784Z,10.30
2019-04-05T09:16:11.886Z,10.30
2019-04-05T09:18:40.956Z,10.30
2019-04-05T09:21:10.243Z,10.30
2019-04-05T09:23:39.733Z,10.20
2019-04-05T09:26:08.849Z,10.20
2019-04-05T09:28:38.148Z,10.30
2019-04-05T09:31:10.430Z,10.30
2019-04-05T09:33:39.393Z,10.50
2019-04-05T09:36:08.833Z,10.50
2019-04-05T09:38:37.760Z,10.60
2019-04-05T09:41:06.668Z,10.50
2019-04-05T09:43:35.505Z,10.50
2019-04-05T09:46:04.852Z,10.40
2019-04-05T09:48:33.836Z,10.40
2019-04-05T09:51:02.716Z,10.40
2019-04-05T09:53:31.552Z,10.50
2019-04-05T09:56:00.452Z,10.50
2019-04-05T09:58:29.396Z,10.60
2019-04-05T10:00:58.172Z,10.60
2019-04-05T10:03:27.121Z,10.70
2019-04-05T10:05:56.136Z,10.80
2019-04-05T10:08:25.605Z,10.90
2019-04-05T10:10:55.005Z,11.00
2019-04-05T10:13:23.872Z,11.20
2019-04-05T10:15:52.840Z,11.20
2019-04-05T10:18:21.828Z,11.30
2019-04-05T10:20:50.849Z,11.40
2019-04-05T10:23:19.767Z,11.40
2019-04-05T10:25:48.597Z,11.40
2019-04-05T10:28:17.510Z,11.40
2019-04-05T10:30:46.320Z,11.40
2019-04-05T10:33:15.310Z,11.50
2019-04-05T10:35:44.514Z,11.60
2019-04-05T10:38:13.417Z,11.70
2019-04-05T10:40:42.240Z,11.80
2019-04-05T10:43:11.128Z,11.90
2019-04-05T10:45:40.080Z,12.00
2019-04-05T10:48:09.089Z,12.10
2019-04-05T10:50:37.988Z,12.10
2019-04-05T10:53:07.863Z,12.00
2019-04-05T10:55:36.844Z,12.00
2019-04-05T10:58:06.085Z,11.90
2019-04-05T11:00:35.176Z,12.00
2019-04-05T11:03:04.166Z,12.10
2019-04-05T11:05:33.144Z,12.10
2019-04-05T11:08:02.051Z,12.10
2019-04-05T11:10:31.067Z,12.00
2019-04-05T11:12:59.888Z,12.00
2019-04-05T11:15:30.959Z,12.10
2019-04-05T11:17:59.388Z,12.10
2019-04-05T11:20:28.293Z,12.20
2019-04-05T11:22:57.142Z,12.10
2019-04-05T11:25:25.953Z,12.20
2019-04-05T11:27:54.852Z,12.30
2019-04-05T11:30:42.937Z,12.30
2019-04-05T11:33:12.529Z,12.30
2019-04-05T11:35:42.140Z,12.40
2019-04-05T11:38:12.188Z,12.40
2019-04-05T11:40:41.797Z,12.30
2019-04-05T11:43:10.732Z,12.20
2019-04-05T11:45:40.547Z,12.20
2019-04-05T11:48:09.742Z,12.10
2019-04-05T11:50:38.737Z,12.10
2019-04-05T11:53:07.716Z,12.00
2019-04-05T11:55:36.667Z,12.00
2019-04-05T11:58:05.676Z,12.00
2019-04-05T12:01:02.932Z,12.00
2019-04-05T12:03:31.971Z,12.00
2019-04-05T12:06:00.847Z,11.90
2019-04-05T12:08:29.668Z,12.00
2019-04-05T12:10:58.569Z,11.90
2019-04-05T12:13:27.348Z,11.90
2019-04-05T12:15:58.167Z,11.90
2019-04-05T12:18:26.796Z,11.90
2019-04-05T12:21:00.261Z,11.80
2019-04-05T12:23:26.404Z,11.80
2019-04-05T12:25:55.389Z,11.80
2019-04-05T12:28:24.332Z,11.80
2019-04-05T12:30:53.252Z,11.70
2019-04-05T12:33:22.076Z,11.60
2019-04-05T12:35:52.569Z,11.60
2019-04-05T12:38:32.460Z,11.60
2019-04-05T12:41:03.208Z,11.70
2019-04-05T12:43:32.608Z,11.60
2019-04-05T12:46:01.880Z,11.60
2019-04-05T12:48:30.832Z,11.60
2019-04-05T12:51:01.203Z,11.50
2019-04-05T12:53:30.584Z,11.50
2019-04-05T12:55:59.555Z,11.50
2019-04-05T12:58:28.361Z,11.50
2019-04-05T13:00:57.196Z,11.40
2019-04-05T13:03:26.139Z,11.40
2019-04-05T13:05:57.144Z,11.40
2019-04-05T13:08:25.681Z,11.30
2019-04-05T13:10:55.995Z,11.30
2019-04-05T13:13:27.470Z,11.30
2019-04-05T13:15:55.807Z,11.20
2019-04-05T13:18:25.255Z,11.30
2019-04-05T13:20:54.659Z,11.30
2019-04-05T13:23:23.660Z,11.30
2019-04-05T13:25:52.972Z,11.30
2019-04-05T13:28:22.085Z,11.20
2019-04-05T13:30:50.893Z,11.20
2019-04-05T13:33:21.637Z,11.20
2019-04-05T13:35:50.664Z,11.20
2019-04-05T13:38:19.492Z,11.30
2019-04-05T13:40:48.384Z,11.20
2019-04-05T13:43:17.850Z,11.20
2019-04-05T13:45:47.100Z,11.20
2019-04-05T13:48:15.980Z,11.20
2019-04-05T13:50:44.811Z,11.10
2019-04-05T13:53:13.776Z,11.20
2019-04-05T13:55:42.758Z,11.10
2019-04-05T13:58:12.070Z,11.10
2019-04-05T14:00:41.249Z,11.20
2019-04-05T14:03:10.046Z,11.20
2019-04-05T14:05:38.916Z,11.20
2019-04-05T14:08:11.145Z,11.20
2019-04-05T14:10:39.697Z,11.20
2019-04-05T14:13:09.985Z,11.10
2019-04-05T14:15:41.973Z,11.10
2019-04-05T14:18:10.164Z,11.10
2019-04-05T14:20:39.053Z,11.10
2019-04-05T14:23:08.036Z,11.10
2019-04-05T14:25:37.008Z,11.10
2019-04-05T14:28:05.828Z,11.10
2019-04-05T14:30:36.224Z,11.10
2019-04-05T14:33:05.094Z,11.10
2019-04-05T14:35:33.957Z,11.10
2019-04-05T14:38:03.157Z,11.10
2019-04-05T14:40:33.105Z,11.10
2019-04-05T14:43:02.089Z,11.10
2019-04-05T14:45:30.980Z,11.10
2019-04-05T14:48:00.039Z,11.00
2019-04-05T14:50:29.071Z,11.10
2019-04-05T14:53:00.937Z,11.10
2019-04-05T14:55:29.956Z,11.10
2019-04-05T14:57:59.489Z,11.00
2019-04-05T15:00:28.926Z,11.00
2019-04-05T15:02:57.773Z,11.00
2019-04-05T15:05:26.991Z,11.00
2019-04-05T15:07:56.129Z,11.10
2019-04-05T15:10:26.200Z,11.10
2019-04-05T15:12:55.152Z,11.10
2019-04-05T15:15:24.028Z,11.10
2019-04-05T15:17:52.909Z,11.00
2019-04-05T15:20:22.107Z,11.10
2019-04-05T15:22:51.024Z,11.10
2019-04-05T15:25:21.847Z,11.10
2019-04-05T15:27:55.165Z,11.10
2019-04-05T15:30:21.646Z,11.10
2019-04-05T15:32:52.305Z,11.00
2019-04-05T15:35:21.128Z,11.00
2019-04-05T15:37:50.101Z,11.00
2019-04-05T15:40:19.076Z,11.00
2019-04-05T15:42:48.040Z,11.00
2019-04-05T15:45:17.316Z,11.10
2019-04-05T15:47:46.416Z,11.00
2019-04-05T15:50:15.662Z,11.00
2019-04-05T15:52:44.731Z,11.00
2019-04-05T15:55:13.708Z,10.90
2019-04-05T15:57:42.608Z,10.90
2019-04-05T16:00:14.429Z,10.90
2019-04-05T16:02:43.366Z,11.00
2019-04-05T16:05:13.264Z,10.90
2019-04-05T16:07:42.294Z,10.90
2019-04-05T16:10:11.944Z,10.90
2019-04-05T16:12:41.023Z,10.90
2019-04-05T16:15:10.477Z,10.90
2019-04-05T16:17:39.468Z,10.90
2019-04-05T16:20:08.992Z,10.80
2019-04-05T16:22:37.812Z,10.80
2019-04-05T16:25:08.529Z,10.80
2019-04-05T16:27:37.587Z,10.80
2019-04-05T16:30:08.195Z,10.70
2019-04-05T16:32:37.060Z,10.70
2019-04-05T16:35:06.361Z,10.70
2019-04-05T16:37:35.408Z,10.80
2019-04-05T16:40:04.885Z,10.80
2019-04-05T16:42:33.864Z,10.70
2019-04-05T16:45:02.737Z,10.60
2019-04-05T16:47:31.676Z,10.60
2019-04-05T16:50:00.676Z,10.60
2019-04-05T16:52:29.916Z,10.60
2019-04-05T16:54:58.796Z,10.50
2019-04-05T16:57:28.114Z,10.40
2019-04-05T16:59:57.041Z,10.50
2019-04-05T17:02:26.149Z,10.50
2019-04-05T17:04:55.060Z,10.40
2019-04-05T17:07:24.454Z,10.40
2019-04-05T17:09:53.228Z,10.30
2019-04-05T17:12:22.188Z,10.30
2019-04-05T17:14:51.177Z,10.30
2019-04-05T17:17:20.097Z,10.20
2019-04-05T17:19:49.082Z,10.20
2019-04-05T17:22:18.407Z,10.20
2019-04-05T17:24:47.289Z,10.20
2019-04-05T17:27:16.055Z,10.20
2019-04-05T17:29:44.982Z,10.20
2019-04-05T17:32:13.932Z,10.20
2019-04-05T17:34:42.816Z,10.20
2019-04-05T17:37:11.898Z,10.20
2019-04-05T17:39:41.036Z,10.20
2019-04-05T17:42:10.135Z,10.20
2019-04-05T17:44:39.008Z,10.10
2019-04-05T17:47:08.076Z,10.10
2019-04-05T17:49:37.032Z,10.10
2019-04-05T17:52:06.315Z,10.20
2019-04-05T17:54:35.266Z,10.20
2019-04-05T17:57:04.220Z,10.30
2019-04-05T17:59:33.616Z,10.30
2019-04-05T18:02:02.698Z,10.30
2019-04-05T18:04:31.556Z,10.20
2019-04-05T18:07:00.463Z,10.20
2019-04-05T18:09:29.244Z,10.10
2019-04-05T18:11:58.103Z,10.10
2019-04-05T18:14:27.267Z,10.10
2019-04-05T18:16:56.188Z,10.10
2019-04-05T18:19:25.216Z,10.10
2019-04-05T18:21:54.005Z,10.10
2019-04-05T18:24:22.979Z,10.10
2019-04-05T18:26:51.860Z,10.10
2019-04-05T18:29:20.816Z,10.10
2019-04-05T18:31:49.816Z,10.10
2019-04-05T18:34:18.944Z,10.10
2019-04-05T18:36:48.331Z,10.10
2019-04-05T18:39:17.353Z,10.00
2019-04-05T18:41:46.362Z,10.00
2019-04-05T18:44:15.149Z,10.00
2019-04-05T18:46:44.100Z,10.00
2019-04-05T18:49:13.241Z,10.00
2019-04-05T18:51:42.219Z,10.10
2019-04-05T18:54:11.146Z,10.10
2019-04-05T18:56:40.073Z,10.10
2019-04-05T18:59:08.925Z,10.10
2019-04-05T19:01:37.833Z,10.00
2019-04-05T19:04:06.860Z,10.00
2019-04-05T19:06:35.884Z,10.00
2019-04-05T19:09:07.152Z,10.10
2019-04-05T19:11:36.004Z,10.10
2019-04-05T19:14:05.187Z,10.00
2019-04-05T19:16:34.160Z,10.00
2019-04-05T19:19:03.031Z,10.00
2019-04-05T19:21:35.133Z,10.00
2019-04-05T19:24:04.147Z,10.00
2019-04-05T19:26:33.052Z,10.10
2019-04-05T19:29:02.120Z,10.00
2019-04-05T19:49:08.020Z,9.90
2019-04-05T19:51:37.038Z,9.90
2019-04-05T19:54:06.015Z,9.90
2019-04-05T19:56:34.921Z,9.90
2019-04-05T19:59:03.916Z,9.90
2019-04-05T20:01:32.912Z,9.80
2019-04-05T20:04:01.820Z,9.80
2019-04-05T20:06:30.696Z,9.90
2019-04-05T20:08:59.612Z,9.80
2019-04-05T20:11:28.529Z,9.80
2019-04-05T20:13:57.428Z,9.80
2019-04-05T20:16:28.572Z,9.80
2019-04-05T20:18:56.886Z,9.90
2019-04-05T20:21:25.672Z,9.90
2019-04-05T20:23:54.548Z,9.90
2019-04-05T20:26:23.412Z,9.80
2019-04-05T20:28:52.328Z,9.80
2019-04-05T20:31:21.208Z,9.80
2019-04-05T20:33:50.103Z,9.80
2019-04-05T20:36:18.952Z,9.80
2019-04-05T20:38:49.877Z,9.80
2019-04-05T20:41:18.886Z,9.90
2019-04-05T20:43:47.896Z,9.80
2019-04-05T20:46:16.808Z,9.80
2019-04-05T20:48:45.711Z,9.80
2019-04-05T20:51:14.595Z,9.80
2019-04-05T20:53:43.418Z,9.80
2019-04-05T20:56:12.442Z,9.80
2019-04-05T20:58:41.492Z,9.80
2019-04-05T21:01:10.488Z,9.80
2019-04-05T21:03:40.093Z,9.80
2019-04-05T21:06:09.432Z,9.80
2019-04-05T21:08:38.613Z,9.80
2019-04-05T21:11:09.384Z,9.80
2019-04-05T21:13:38.541Z,9.80
2019-04-05T21:16:07.728Z,9.80
2019-04-05T21:18:36.644Z,9.90
2019-04-05T21:21:05.608Z,9.80
2019-04-05T21:23:34.479Z,9.80
2019-04-05T21:26:03.416Z,9.80
2019-04-05T21:28:32.325Z,9.80
2019-04-05T21:31:01.373Z,9.80
2019-04-05T21:33:30.192Z,9.80
2019-04-05T21:35:58.984Z,9.80
2019-04-05T21:38:27.810Z,9.80
2019-04-05T21:40:56.693Z,9.80
2019-04-05T21:43:25.804Z,9.80
2019-04-05T21:45:54.716Z,9.80
2019-04-05T21:48:23.532Z,9.80
2019-04-05T21:50:52.420Z,9.80
2019-04-05T21:53:21.259Z,9.80
2019-04-05T21:55:50.115Z,9.80
2019-04-05T21:58:19.132Z,9.80
2019-04-05T22:00:52.156Z,9.80
2019-04-05T22:03:21.140Z,9.80
2019-04-05T22:05:50.199Z,9.80
2019-04-05T22:08:19.420Z,9.80
2019-04-05T22:10:48.388Z,9.70
2019-04-05T22:13:17.305Z,9.70
2019-04-05T22:15:46.296Z,9.70
2019-04-05T22:18:15.197Z,9.70
2019-04-05T22:20:44.167Z,9.70
2019-04-05T22:23:13.023Z,9.70
2019-04-05T22:25:41.952Z,9.70
2019-04-05T22:28:10.858Z,9.70
2019-04-05T22:30:40.231Z,9.70
2019-04-05T22:33:09.525Z,9.70
2019-04-05T22:35:38.436Z,9.70
2019-04-05T22:38:07.424Z,9.80
2019-04-05T22:40:36.308Z,9.70
2019-04-05T22:43:05.332Z,9.70
2019-04-05T22:45:34.636Z,9.70
2019-04-05T22:48:03.604Z,9.70
2019-04-05T22:50:32.576Z,9.70
2019-04-05T22:53:01.539Z,9.70
2019-04-05T22:55:30.445Z,9.70
2019-04-05T22:57:59.448Z,9.80
2019-04-05T23:00:28.444Z,9.80
2019-04-05T23:02:57.307Z,9.70
2019-04-05T23:05:26.136Z,9.70
2019-04-05T23:07:55.312Z,9.70
2019-04-05T23:10:24.296Z,9.70
2019-04-05T23:12:53.257Z,9.70
2019-04-05T23:15:22.140Z,9.60
2019-04-05T23:17:51.072Z,9.60
2019-04-05T23:20:20.320Z,9.60
2019-04-05T23:22:49.324Z,9.60
2019-04-05T23:25:22.192Z,9.60
2019-04-05T23:27:48.822Z,9.60
2019-04-05T23:30:19.108Z,9.60
2019-04-05T23:32:47.913Z,9.50
2019-04-05T23:35:16.916Z,9.50
2019-04-05T23:37:46.085Z,9.60
2019-04-05T23:40:15.332Z,9.60
2019-04-05T23:42:44.424Z,9.60
2019-04-05T23:45:13.636Z,9.60
2019-04-05T23:47:42.497Z,9.50
2019-04-05T23:50:12.881Z,9.60
2019-04-05T23:52:41.884Z,9.50
2019-04-05T23:55:11.160Z,9.50
2019-04-05T23:57:40.024Z,9.50
